Terminal Aerodrome Forecast
Issued by NWS

Home | Current Version | Previous Version | Text Only | Print | Product List | Glossary On
Versions: 1 2 3 4 5 6 7 8 9 10 11 12 13
000
FTUS41 KBTV 251720
TAFMPV
TAF
KMPV 251720Z 2518/2618 22006KT P6SM -SHRA BKN045 OVC070
     FM260600 20010KT 5SM BR VCSH BKN030 OVC035 WS020/24035KT
     FM261000 23009KT P6SM SCT030 BKN040
     FM261300 25010G18KT P6SM SCT050 BKN100=

USA.gov is the U.S. government's official web portal to all federal, state and local government web resources and services.